sensor_id;sensor_type;location;lat;lon;timestamp;P1;durP1;ratioP1;P2;durP2;ratioP2
42146;SDS011;27815;43.410;11.852;2022-10-16T02:16:00;9.00;;;4.90;;
42146;SDS011;27815;43.410;11.852;2022-10-16T02:27:15;10.73;;;6.65;;
42146;SDS011;27815;43.410;11.852;2022-10-16T02:39:37;14.63;;;10.00;;
42146;SDS011;27815;43.410;11.852;2022-10-16T02:44:34;15.60;;;8.02;;
42146;SDS011;27815;43.410;11.852;2022-10-16T02:53:47;10.27;;;6.38;;
42146;SDS011;27815;43.410;11.852;2022-10-16T02:57:55;9.98;;;6.47;;
42146;SDS011;27815;43.410;11.852;2022-10-16T03:01:59;10.25;;;6.18;;
42146;SDS011;27815;43.410;11.852;2022-10-16T03:06:08;9.88;;;5.32;;
42146;SDS011;27815;43.410;11.852;2022-10-16T03:10:14;8.38;;;5.68;;
42146;SDS011;27815;43.410;11.852;2022-10-16T03:14:20;8.70;;;5.85;;
42146;SDS011;27815;43.410;11.852;2022-10-16T03:18:26;9.60;;;5.30;;
42146;SDS011;27815;43.410;11.852;2022-10-16T03:22:30;8.75;;;5.47;;
42146;SDS011;27815;43.410;11.852;2022-10-16T03:26:35;10.50;;;7.25;;
42146;SDS011;27815;43.410;11.852;2022-10-16T03:30:39;10.75;;;6.60;;
42146;SDS011;27815;43.410;11.852;2022-10-16T03:34:45;8.82;;;5.95;;
42146;SDS011;27815;43.410;11.852;2022-10-16T03:38:48;9.75;;;5.90;;
42146;SDS011;27815;43.410;11.852;2022-10-16T03:42:52;11.52;;;7.20;;
42146;SDS011;27815;43.410;11.852;2022-10-16T03:46:59;6.82;;;5.28;;
42146;SDS011;27815;43.410;11.852;2022-10-16T03:51:04;7.80;;;5.55;;
42146;SDS011;27815;43.410;11.852;2022-10-16T03:55:10;9.18;;;5.00;;
42146;SDS011;27815;43.410;11.852;2022-10-16T03:59:19;8.10;;;4.78;;
42146;SDS011;27815;43.410;11.852;2022-10-16T04:07:52;8.50;;;5.70;;
42146;SDS011;27815;43.410;11.852;2022-10-16T04:11:59;11.20;;;6.32;;
42146;SDS011;27815;43.410;11.852;2022-10-16T04:16:03;8.52;;;6.13;;
42146;SDS011;27815;43.410;11.852;2022-10-16T04:20:08;7.18;;;4.95;;
42146;SDS011;27815;43.410;11.852;2022-10-16T04:24:14;10.38;;;6.10;;
42146;SDS011;27815;43.410;11.852;2022-10-16T04:28:18;9.10;;;6.20;;
42146;SDS011;27815;43.410;11.852;2022-10-16T04:32:22;8.60;;;5.60;;
42146;SDS011;27815;43.410;11.852;2022-10-16T04:43:08;11.13;;;6.57;;
42146;SDS011;27815;43.410;11.852;2022-10-16T04:47:19;11.43;;;6.47;;
42146;SDS011;27815;43.410;11.852;2022-10-16T05:12:45;12.52;;;8.05;;
42146;SDS011;27815;43.410;11.852;2022-10-16T05:23:39;16.17;;;7.40;;
42146;SDS011;27815;43.410;11.852;2022-10-16T05:27:43;12.43;;;6.95;;
42146;SDS011;27815;43.410;11.852;2022-10-16T05:38:13;11.15;;;6.70;;
42146;SDS011;27815;43.410;11.852;2022-10-16T05:49:08;14.65;;;6.57;;
42146;SDS011;27815;43.410;11.852;2022-10-16T05:53:19;8.07;;;5.55;;
42146;SDS011;27815;43.410;11.852;2022-10-16T05:57:27;11.88;;;7.15;;
42146;SDS011;27815;43.410;11.852;2022-10-16T06:16:26;18.98;;;12.32;;
42146;SDS011;27815;43.410;11.852;2022-10-16T06:29:34;20.45;;;12.48;;
42146;SDS011;27815;43.410;11.852;2022-10-16T06:49:29;19.73;;;13.32;;
42146;SDS011;27815;43.410;11.852;2022-10-16T06:53:43;19.42;;;13.32;;
42146;SDS011;27815;43.410;11.852;2022-10-16T06:58:09;18.20;;;13.45;;
42146;SDS011;27815;43.410;11.852;2022-10-16T07:06:45;15.93;;;11.38;;
42146;SDS011;27815;43.410;11.852;2022-10-16T07:39:17;20.33;;;14.23;;
42146;SDS011;27815;43.410;11.852;2022-10-16T07:55:25;28.95;;;17.58;;
42146;SDS011;27815;43.410;11.852;2022-10-16T07:59:31;26.90;;;17.40;;
42146;SDS011;27815;43.410;11.852;2022-10-16T08:03:36;32.17;;;18.73;;
42146;SDS011;27815;43.410;11.852;2022-10-16T08:16:48;26.92;;;18.67;;
42146;SDS011;27815;43.410;11.852;2022-10-16T08:20:56;30.27;;;20.17;;
42146;SDS011;27815;43.410;11.852;2022-10-16T08:25:03;32.10;;;20.90;;
42146;SDS011;27815;43.410;11.852;2022-10-16T08:29:13;34.30;;;22.75;;
42146;SDS011;27815;43.410;11.852;2022-10-16T08:33:17;37.65;;;25.60;;
42146;SDS011;27815;43.410;11.852;2022-10-16T08:37:23;32.30;;;20.40;;
42146;SDS011;27815;43.410;11.852;2022-10-16T08:46:25;34.75;;;24.75;;
42146;SDS011;27815;43.410;11.852;2022-10-16T08:51:36;50.40;;;33.30;;
42146;SDS011;27815;43.410;11.852;2022-10-16T08:55:51;60.22;;;40.35;;
42146;SDS011;27815;43.410;11.852;2022-10-16T08:59:57;52.75;;;37.33;;
42146;SDS011;27815;43.410;11.852;2022-10-16T09:12:31;25.70;;;21.00;;
42146;SDS011;27815;43.410;11.852;2022-10-16T09:22:12;20.20;;;16.17;;
42146;SDS011;27815;43.410;11.852;2022-10-16T09:26:20;17.98;;;14.48;;
42146;SDS011;27815;43.410;11.852;2022-10-16T09:30:26;17.27;;;13.13;;
42146;SDS011;27815;43.410;11.852;2022-10-16T09:38:39;17.20;;;11.75;;
42146;SDS011;27815;43.410;11.852;2022-10-16T09:42:42;21.35;;;13.32;;
42146;SDS011;27815;43.410;11.852;2022-10-16T09:47:12;17.75;;;13.13;;
42146;SDS011;27815;43.410;11.852;2022-10-16T09:51:25;17.10;;;13.15;;
42146;SDS011;27815;43.410;11.852;2022-10-16T09:55:50;17.58;;;13.13;;
42146;SDS011;27815;43.410;11.852;2022-10-16T09:59:58;16.05;;;12.32;;
42146;SDS011;27815;43.410;11.852;2022-10-16T10:04:01;14.40;;;12.85;;
42146;SDS011;27815;43.410;11.852;2022-10-16T10:08:05;16.17;;;13.45;;
42146;SDS011;27815;43.410;11.852;2022-10-16T10:12:26;43.22;;;20.75;;
42146;SDS011;27815;43.410;11.852;2022-10-16T10:16:34;18.55;;;14.02;;
42146;SDS011;27815;43.410;11.852;2022-10-16T10:20:41;12.70;;;10.70;;
42146;SDS011;27815;43.410;11.852;2022-10-16T10:29:24;12.70;;;9.55;;
42146;SDS011;27815;43.410;11.852;2022-10-16T10:57:56;9.48;;;8.48;;
42146;SDS011;27815;43.410;11.852;2022-10-16T11:02:44;11.60;;;6.72;;
42146;SDS011;27815;43.410;11.852;2022-10-16T11:07:00;9.77;;;7.72;;
42146;SDS011;27815;43.410;11.852;2022-10-16T11:11:09;9.93;;;7.40;;
42146;SDS011;27815;43.410;11.852;2022-10-16T11:15:19;9.77;;;6.18;;
42146;SDS011;27815;43.410;11.852;2022-10-16T11:19:54;6.93;;;5.78;;
42146;SDS011;27815;43.410;11.852;2022-10-16T11:24:36;9.13;;;5.50;;
42146;SDS011;27815;43.410;11.852;2022-10-16T11:29:26;7.55;;;4.93;;
42146;SDS011;27815;43.410;11.852;2022-10-16T11:38:18;7.03;;;4.40;;
42146;SDS011;27815;43.410;11.852;2022-10-16T11:42:41;5.88;;;3.83;;
42146;SDS011;27815;43.410;11.852;2022-10-16T11:46:52;5.43;;;4.32;;
42146;SDS011;27815;43.410;11.852;2022-10-16T11:51:33;6.10;;;3.70;;
42146;SDS011;27815;43.410;11.852;2022-10-16T11:56:03;6.93;;;3.60;;
42146;SDS011;27815;43.410;11.852;2022-10-16T12:04:34;6.15;;;3.45;;
42146;SDS011;27815;43.410;11.852;2022-10-16T12:09:00;4.07;;;2.42;;
42146;SDS011;27815;43.410;11.852;2022-10-16T12:17:40;7.78;;;4.90;;
42146;SDS011;27815;43.410;11.852;2022-10-16T12:21:44;5.70;;;3.35;;
42146;SDS011;27815;43.410;11.852;2022-10-16T12:25:53;5.15;;;2.63;;
42146;SDS011;27815;43.410;11.852;2022-10-16T12:30:04;6.63;;;3.10;;
42146;SDS011;27815;43.410;11.852;2022-10-16T13:29:31;6.38;;;2.75;;
42146;SDS011;27815;43.410;11.852;2022-10-16T13:33:39;5.25;;;2.25;;
42146;SDS011;27815;43.410;11.852;2022-10-16T13:43:03;5.55;;;2.00;;
42146;SDS011;27815;43.410;11.852;2022-10-16T13:47:28;4.40;;;1.75;;
42146;SDS011;27815;43.410;11.852;2022-10-16T13:51:32;4.15;;;1.80;;
42146;SDS011;27815;43.410;11.852;2022-10-16T13:55:35;4.85;;;1.90;;
42146;SDS011;27815;43.410;11.852;2022-10-16T13:59:39;4.82;;;1.73;;
42146;SDS011;27815;43.410;11.852;2022-10-16T14:03:46;3.65;;;2.08;;
42146;SDS011;27815;43.410;11.852;2022-10-16T14:07:55;6.20;;;2.00;;
42146;SDS011;27815;43.410;11.852;2022-10-16T14:12:03;4.75;;;2.10;;
42146;SDS011;27815;43.410;11.852;2022-10-16T14:16:20;5.50;;;2.08;;
42146;SDS011;27815;43.410;11.852;2022-10-16T14:20:30;3.70;;;2.00;;
42146;SDS011;27815;43.410;11.852;2022-10-16T14:24:52;3.83;;;2.10;;
42146;SDS011;27815;43.410;11.852;2022-10-16T14:29:29;6.88;;;3.38;;
42146;SDS011;27815;43.410;11.852;2022-10-16T14:33:35;4.55;;;2.53;;
42146;SDS011;27815;43.410;11.852;2022-10-16T14:37:38;6.07;;;3.08;;
42146;SDS011;27815;43.410;11.852;2022-10-16T14:41:43;4.32;;;2.70;;
42146;SDS011;27815;43.410;11.852;2022-10-16T14:45:54;5.22;;;2.67;;
42146;SDS011;27815;43.410;11.852;2022-10-16T14:50:01;6.38;;;2.92;;
42146;SDS011;27815;43.410;11.852;2022-10-16T14:54:04;5.82;;;3.20;;
42146;SDS011;27815;43.410;11.852;2022-10-16T14:58:10;4.55;;;2.70;;
42146;SDS011;27815;43.410;11.852;2022-10-16T15:02:32;8.93;;;2.90;;
42146;SDS011;27815;43.410;11.852;2022-10-16T15:06:37;5.57;;;2.72;;
42146;SDS011;27815;43.410;11.852;2022-10-16T15:10:41;4.38;;;2.90;;
42146;SDS011;27815;43.410;11.852;2022-10-16T15:14:46;3.95;;;2.55;;
42146;SDS011;27815;43.410;11.852;2022-10-16T15:18:48;4.97;;;2.72;;
42146;SDS011;27815;43.410;11.852;2022-10-16T15:22:51;6.10;;;2.40;;
42146;SDS011;27815;43.410;11.852;2022-10-16T15:26:54;6.75;;;2.72;;
42146;SDS011;27815;43.410;11.852;2022-10-16T15:30:57;5.60;;;2.70;;
42146;SDS011;27815;43.410;11.852;2022-10-16T15:35:02;4.10;;;2.55;;
42146;SDS011;27815;43.410;11.852;2022-10-16T15:39:08;3.83;;;2.65;;
42146;SDS011;27815;43.410;11.852;2022-10-16T15:43:16;4.30;;;2.53;;
42146;SDS011;27815;43.410;11.852;2022-10-16T15:47:19;4.38;;;2.75;;
42146;SDS011;27815;43.410;11.852;2022-10-16T15:51:25;4.45;;;2.58;;
42146;SDS011;27815;43.410;11.852;2022-10-16T16:00:19;7.20;;;3.22;;
42146;SDS011;27815;43.410;11.852;2022-10-16T16:04:31;3.70;;;2.28;;
42146;SDS011;27815;43.410;11.852;2022-10-16T16:08:44;5.75;;;3.00;;
42146;SDS011;27815;43.410;11.852;2022-10-16T16:12:48;4.32;;;2.72;;
42146;SDS011;27815;43.410;11.852;2022-10-16T16:17:01;8.93;;;2.83;;
42146;SDS011;27815;43.410;11.852;2022-10-16T16:21:18;4.55;;;3.33;;
42146;SDS011;27815;43.410;11.852;2022-10-16T16:25:22;5.28;;;3.50;;
42146;SDS011;27815;43.410;11.852;2022-10-16T16:29:40;5.53;;;3.70;;
42146;SDS011;27815;43.410;11.852;2022-10-16T16:33:43;5.05;;;4.20;;
42146;SDS011;27815;43.410;11.852;2022-10-16T16:37:47;5.57;;;4.20;;
42146;SDS011;27815;43.410;11.852;2022-10-16T16:41:50;7.20;;;4.80;;
42146;SDS011;27815;43.410;11.852;2022-10-16T16:45:55;7.55;;;4.30;;
42146;SDS011;27815;43.410;11.852;2022-10-16T16:50:28;5.85;;;4.57;;
42146;SDS011;27815;43.410;11.852;2022-10-16T17:02:56;7.43;;;4.80;;
42146;SDS011;27815;43.410;11.852;2022-10-16T17:13:53;7.05;;;4.80;;
42146;SDS011;27815;43.410;11.852;2022-10-16T18:06:13;6.35;;;5.22;;
42146;SDS011;27815;43.410;11.852;2022-10-16T18:10:57;6.57;;;4.80;;
42146;SDS011;27815;43.410;11.852;2022-10-16T18:15:59;6.90;;;5.53;;
42146;SDS011;27815;43.410;11.852;2022-10-16T18:26:48;5.18;;;4.40;;
42146;SDS011;27815;43.410;11.852;2022-10-16T18:31:24;5.57;;;4.37;;
42146;SDS011;27815;43.410;11.852;2022-10-16T18:48:18;4.53;;;3.63;;
42146;SDS011;27815;43.410;11.852;2022-10-16T18:52:21;5.13;;;4.28;;
42146;SDS011;27815;43.410;11.852;2022-10-16T18:56:25;4.80;;;3.95;;
42146;SDS011;27815;43.410;11.852;2022-10-16T19:00:41;7.00;;;4.10;;
42146;SDS011;27815;43.410;11.852;2022-10-16T19:04:53;7.10;;;4.20;;
42146;SDS011;27815;43.410;11.852;2022-10-16T19:08:57;4.68;;;4.13;;
42146;SDS011;27815;43.410;11.852;2022-10-16T19:13:00;6.22;;;4.03;;
42146;SDS011;27815;43.410;11.852;2022-10-16T19:17:06;6.73;;;4.00;;
42146;SDS011;27815;43.410;11.852;2022-10-16T19:21:10;7.28;;;4.15;;
42146;SDS011;27815;43.410;11.852;2022-10-16T19:25:16;5.20;;;3.47;;
42146;SDS011;27815;43.410;11.852;2022-10-16T19:29:47;5.45;;;4.00;;
42146;SDS011;27815;43.410;11.852;2022-10-16T19:38:57;8.55;;;4.05;;
42146;SDS011;27815;43.410;11.852;2022-10-16T19:49:28;6.10;;;3.50;;
42146;SDS011;27815;43.410;11.852;2022-10-16T19:54:38;6.72;;;3.30;;
42146;SDS011;27815;43.410;11.852;2022-10-16T20:26:36;5.45;;;3.70;;
42146;SDS011;27815;43.410;11.852;2022-10-16T20:31:10;5.47;;;3.67;;
42146;SDS011;27815;43.410;11.852;2022-10-16T20:35:51;4.50;;;3.15;;
42146;SDS011;27815;43.410;11.852;2022-10-16T20:40:02;5.88;;;3.35;;
42146;SDS011;27815;43.410;11.852;2022-10-16T20:44:42;6.72;;;3.45;;
42146;SDS011;27815;43.410;11.852;2022-10-16T20:48:50;4.53;;;3.22;;
42146;SDS011;27815;43.410;11.852;2022-10-16T20:52:55;6.47;;;3.35;;
42146;SDS011;27815;43.410;11.852;2022-10-16T20:56:58;4.63;;;3.33;;
42146;SDS011;27815;43.410;11.852;2022-10-16T21:01:05;4.90;;;3.55;;
42146;SDS011;27815;43.410;11.852;2022-10-16T21:05:10;5.47;;;3.15;;
42146;SDS011;27815;43.410;11.852;2022-10-16T21:09:13;4.57;;;3.00;;
42146;SDS011;27815;43.410;11.852;2022-10-16T21:13:16;8.65;;;3.38;;
42146;SDS011;27815;43.410;11.852;2022-10-16T21:17:19;5.68;;;3.03;;
42146;SDS011;27815;43.410;11.852;2022-10-16T21:21:24;5.43;;;3.35;;
42146;SDS011;27815;43.410;11.852;2022-10-16T21:25:28;5.22;;;3.25;;
42146;SDS011;27815;43.410;11.852;2022-10-16T21:29:31;6.57;;;3.78;;
42146;SDS011;27815;43.410;11.852;2022-10-16T21:33:37;13.77;;;7.30;;
42146;SDS011;27815;43.410;11.852;2022-10-16T21:37:40;5.57;;;3.63;;
42146;SDS011;27815;43.410;11.852;2022-10-16T21:41:43;6.38;;;3.40;;
42146;SDS011;27815;43.410;11.852;2022-10-16T21:45:47;4.75;;;3.03;;
42146;SDS011;27815;43.410;11.852;2022-10-16T21:49:51;7.10;;;3.80;;
42146;SDS011;27815;43.410;11.852;2022-10-16T21:53:54;4.85;;;3.40;;
42146;SDS011;27815;43.410;11.852;2022-10-16T21:57:57;7.57;;;4.20;;
42146;SDS011;27815;43.410;11.852;2022-10-16T22:02:00;6.93;;;3.33;;
42146;SDS011;27815;43.410;11.852;2022-10-16T22:06:05;9.27;;;3.75;;
42146;SDS011;27815;43.410;11.852;2022-10-16T22:10:09;5.95;;;3.60;;
42146;SDS011;27815;43.410;11.852;2022-10-16T22:14:13;10.30;;;5.65;;
42146;SDS011;27815;43.410;11.852;2022-10-16T22:18:21;7.22;;;4.28;;
42146;SDS011;27815;43.410;11.852;2022-10-16T22:22:24;6.38;;;3.90;;
42146;SDS011;27815;43.410;11.852;2022-10-16T22:26:27;6.40;;;3.70;;
42146;SDS011;27815;43.410;11.852;2022-10-16T22:30:30;7.70;;;3.55;;
42146;SDS011;27815;43.410;11.852;2022-10-16T22:34:37;5.53;;;3.60;;
42146;SDS011;27815;43.410;11.852;2022-10-16T22:38:40;5.47;;;3.72;;
42146;SDS011;27815;43.410;11.852;2022-10-16T22:42:43;6.15;;;3.33;;
42146;SDS011;27815;43.410;11.852;2022-10-16T22:46:46;8.10;;;3.72;;
42146;SDS011;27815;43.410;11.852;2022-10-16T22:50:50;4.90;;;3.13;;
42146;SDS011;27815;43.410;11.852;2022-10-16T22:54:53;7.60;;;4.07;;
42146;SDS011;27815;43.410;11.852;2022-10-16T22:58:56;5.53;;;3.67;;
42146;SDS011;27815;43.410;11.852;2022-10-16T23:02:59;8.35;;;3.92;;
42146;SDS011;27815;43.410;11.852;2022-10-16T23:07:02;8.02;;;4.03;;
42146;SDS011;27815;43.410;11.852;2022-10-16T23:11:06;8.35;;;4.47;;
42146;SDS011;27815;43.410;11.852;2022-10-16T23:15:11;6.45;;;3.58;;
42146;SDS011;27815;43.410;11.852;2022-10-16T23:19:14;8.93;;;4.63;;
42146;SDS011;27815;43.410;11.852;2022-10-16T23:23:17;9.55;;;4.05;;
42146;SDS011;27815;43.410;11.852;2022-10-16T23:27:20;8.27;;;4.78;;
42146;SDS011;27815;43.410;11.852;2022-10-16T23:31:24;6.20;;;4.53;;
42146;SDS011;27815;43.410;11.852;2022-10-16T23:35:27;7.88;;;5.68;;
42146;SDS011;27815;43.410;11.852;2022-10-16T23:39:30;11.45;;;6.10;;
42146;SDS011;27815;43.410;11.852;2022-10-16T23:43:33;7.38;;;5.38;;
42146;SDS011;27815;43.410;11.852;2022-10-16T23:47:37;7.68;;;4.43;;
42146;SDS011;27815;43.410;11.852;2022-10-16T23:51:40;7.32;;;4.47;;
42146;SDS011;27815;43.410;11.852;2022-10-16T23:55:48;8.55;;;4.93;;
42146;SDS011;27815;43.410;11.852;2022-10-16T23:59:51;9.35;;;4.72;;
